Alsey, Illinois
Current Conditions -  °F | °C
As of 7:35 PM on Monday 24 Nov 2014 (Local Time) from KIJX Reporting Station
Overcast Overcast  
Wind Chill: 28°   Ceiling: 3100
Heat Index: 36°   Visibility: 10mi
Dew Point: 27°   Wind: 12mph
Humidity: 72%   Direction: 260°W
Pressure: 29.89"   Gusts: NA
Location:  39.56°N, 90.43°W
Report Text: KIJX 250135Z AUTO 26010KT 10SM OVC031 02/M03 A2989 RMK AO2 T00201026
Loading
Personal Weather Stations






























Interactive Weather Map New forecast layout! Learn more

10-Day Weather Forecast

Advertisements
Track Severe Weather on mobile